Latest Weather Observations for Hamilton

IDV60801

Issued at 5:32 am EDT Tuesday 9 February 2016 (issued every 30 minutes, with the page automatically refreshed every 10 minutes)

About weather observations | Map of weather stations | Latest weather observations for VIC | Other Formats
Station Details ID: 090173 Name: HAMILTON AIRPORT Lat: -37.65 Lon: 142.06 Height: 241.1 m
Data from the previous 72 hours. | See also: Recent months at Hamilton
Date/Time
EDT
Temp
°C
App
Temp
°C
Dew
Point
Rel
Hum
%
Delta-T
°C
Wind Press
QNH
hPa
Press
MSL
hPa
Rain
since 9 am
mm
Dir
 
Spd
km/h
Gust
km/h
Spd
kts
Gust
kts
09/05:30am 10.2 8.0 9.3 94 0.5 ESE 11 13 6 7 1021.7 1021.0 0.0
09/05:00am 10.4 8.2 9.3 93 0.6 ESE 11 13 6 7 1021.7 1021.0 0.0
09/04:30am 10.8 8.3 9.7 93 0.6 ESE 13 15 7 8 1021.7 1021.0 0.0
09/04:00am 11.3 8.9 10.0 92 0.7 ESE 13 17 7 9 1021.9 1021.2 0.0
09/03:30am 11.7 8.6 10.4 92 0.7 SE 17 19 9 10 1022.0 1021.3 0.0
09/03:00am 11.4 9.4 10.3 93 0.6 ESE 11 13 6 7 1022.3 1021.6 0.0
09/02:30am 11.7 8.6 10.4 92 0.7 SE 17 19 9 10 1022.3 1021.6 0.0
09/02:00am 12.1 9.5 10.7 91 0.7 ESE 15 19 8 10 1022.7 1022.0 0.0
09/01:30am 12.5 10.4 11.1 91 0.7 ESE 13 17 7 9 1023.0 1022.4 0.0
09/01:00am 12.9 10.5 11.3 90 0.9 ESE 15 20 8 11 1023.2 1022.6 0.0
09/12:30am 13.4 10.7 11.6 89 1.0 SE 17 20 9 11 1023.3 1022.7 0.0
09/12:00am 14.3 10.7 12.0 86 1.3 SE 22 28 12 15 1023.5 1022.9 0.0
 
Date/Time
EDT
Temp
°C
App
Temp
°C
Dew
Point
Rel
Hum
%
Delta-T
°C
Wind Press
QNH
hPa
Press
MSL
hPa
Rain
since 9 am
mm
Dir
 
Spd
km/h
Gust
km/h
Spd
kts
Gust
kts
08/11:30pm 14.4 10.9 12.3 87 1.2 SE 22 28 12 15 1023.7 1023.1 0.0
08/11:00pm 15.2 11.4 12.5 84 1.5 SE 24 35 13 19 1024.0 1023.3 0.0
08/10:30pm 15.5 11.3 12.3 81 1.8 SSE 26 33 14 18 1024.0 1023.3 0.0
08/10:00pm 15.5 11.9 11.7 78 2.1 SSE 22 28 12 15 1023.7 1023.1 0.0
08/09:30pm 15.9 11.9 11.7 76 2.3 SSE 24 33 13 18 1023.5 1022.9 0.0
08/09:00pm 16.6 12.8 11.1 70 3.0 SSE 22 30 12 16 1023.3 1022.7 0.0
08/08:30pm 17.6 12.9 10.7 64 3.7 SSE 26 35 14 19 1023.1 1022.5 0.0
08/08:00pm 19.1 14.8 10.9 59 4.5 SSE 24 33 13 18 1022.9 1022.2 0.0
08/07:30pm 20.4 15.3 10.5 53 5.4 SSE 28 35 15 19 1022.5 1021.8 0.0
08/07:00pm 22.0 16.8 10.2 47 6.5 SSE 28 39 15 21 1022.3 1021.6 0.0
08/06:30pm 22.2 17.2 9.4 44 7.0 SSE 26 39 14 21 1022.1 1021.4 0.0
08/06:00pm 23.8 18.5 8.6 38 8.2 SSE 26 37 14 20 1022.0 1021.3 0.0
08/05:30pm 24.3 18.2 8.3 36 8.6 SSE 30 41 16 22 1022.1 1021.4 0.0
08/05:00pm 24.5 19.5 8.0 35 8.8 SSE 24 35 13 19 1022.2 1021.5 0.0
08/04:30pm 24.9 19.1 8.0 34 9.1 SSE 28 37 15 20 1022.3 1021.6 0.0
08/04:00pm 25.2 20.3 9.9 38 8.5 SSE 26 35 14 19 1022.4 1021.7 0.0
08/03:30pm 24.4 19.7 10.7 42 7.7 SSE 26 37 14 20 1022.5 1021.8 0.0
08/03:00pm 24.7 19.7 9.4 38 8.4 SSE 26 35 14 19 1022.6 1021.9 0.0
08/02:30pm 23.9 18.4 10.6 43 7.4 S 30 41 16 22 1022.7 1022.0 0.0
08/02:00pm 24.7 20.0 10.6 41 7.9 SSE 26 39 14 21 1022.8 1022.1 0.0
08/01:30pm 24.1 19.9 11.1 44 7.4 S 24 35 13 19 1023.0 1022.4 0.0
08/01:00pm 23.4 19.5 10.8 45 7.0 S 22 33 12 18 1023.1 1022.5 0.0
08/12:30pm 22.7 18.9 9.8 44 7.1 SSE 20 33 11 18 1023.3 1022.7 0.0
08/12:00pm 22.0 18.6 11.4 51 5.9 SSE 20 33 11 18 1023.5 1022.9 0.0
08/11:30am 21.2 17.0 11.2 53 5.6 SSE 24 33 13 18 1023.7 1023.1 0.0
08/11:00am 19.9 16.0 10.9 56 4.9 SSE 22 30 12 16 1023.6 1023.0 0.0
08/10:30am 18.5 14.0 10.1 58 4.5 SSE 24 33 13 18 1023.8 1023.2 0.0
08/10:00am 18.2 13.9 10.8 62 4.0 SSE 24 32 13 17 1023.7 1023.1 0.0
08/09:30am 17.1 12.8 10.7 66 3.5 SSE 24 30 13 16 1023.7 1023.1 0.0
08/09:00am 16.8 12.5 10.6 67 3.3 SE 24 33 13 18 1023.5 1022.9 0.0
08/08:30am 15.9 11.6 10.9 72 2.7 SSE 24 32 13 17 1023.1 1022.5 0.0
08/08:00am 14.9 11.5 10.5 75 2.3 SSE 19 26 10 14 1022.7 1022.0 0.0
08/07:30am 14.0 10.6 10.4 79 1.9 SSE 19 24 10 13 1022.4 1021.7 0.0
08/07:00am 13.5 10.4 10.3 81 1.7 SSE 17 22 9 12 1022.2 1021.5 0.0
08/06:30am 14.0 10.6 10.4 79 1.9 SSE 19 26 10 14 1022.0 1021.3 0.0
08/06:00am 14.8 11.3 10.8 77 2.1 SE 20 28 11 15 1021.7 1021.0 0.0
08/05:30am 15.1 11.2 10.9 76 2.3 SE 22 32 12 17 1021.3 1020.6 0.0
08/05:00am 15.1 11.3 11.1 77 2.1 SE 22 30 12 16 1021.2 1020.5 0.0
08/04:30am 15.2 11.9 11.6 79 2.0 SE 20 28 11 15 1021.0 1020.3 0.0
08/04:00am 15.4 11.8 11.8 79 2.0 SE 22 28 12 15 1021.1 1020.4 0.0
08/03:30am 15.6 12.6 12.0 79 2.0 SE 19 26 10 14 1021.2 1020.5 0.0
08/03:00am 15.6 12.1 12.2 80 1.9 SE 22 28 12 15 1021.3 1020.6 0.0
08/02:30am 15.5 13.3 13.3 87 1.2 SE 17 22 9 12 1021.4 1020.7 0.0
08/02:00am 15.3 12.5 13.2 87 1.2 SSE 20 24 11 13 1021.6 1020.9 0.0
08/01:30am 15.8 13.6 13.3 85 1.4 SE 17 22 9 12 1021.7 1021.0 0.0
08/01:00am 15.6 14.2 13.4 87 1.2 SE 13 19 7 10 1021.8 1021.1 0.0
08/12:30am 15.8 13.5 13.1 84 1.5 SE 17 24 9 13 1021.9 1021.2 0.0
08/12:00am 15.3 13.3 12.8 85 1.4 SE 15 19 8 10 1021.9 1021.2 0.0
 
Date/Time
EDT
Temp
°C
App
Temp
°C
Dew
Point
Rel
Hum
%
Delta-T
°C
Wind Press
QNH
hPa
Press
MSL
hPa
Rain
since 9 am
mm
Dir
 
Spd
km/h
Gust
km/h
Spd
kts
Gust
kts
07/11:30pm 16.4 14.2 13.3 82 1.8 SSE 17 24 9 13 1021.9 1021.2 0.0
07/11:00pm 16.4 13.7 13.5 83 1.6 SSE 20 28 11 15 1021.7 1021.0 0.0
07/10:30pm 17.0 13.5 13.3 79 2.1 SSE 24 32 13 17 1021.4 1020.7 0.0
07/10:00pm 17.0 14.3 13.5 80 2.0 SSE 20 28 11 15 1021.0 1020.3 0.0
07/09:30pm 17.2 14.5 13.5 79 2.1 SSE 20 30 11 16 1020.5 1019.8 0.0
07/09:00pm 18.6 15.5 13.5 72 2.9 SSE 22 28 12 15 1020.1 1019.4 0.0
07/08:30pm 20.1 17.3 13.1 64 4.0 SSE 20 26 11 14 1019.6 1018.9 0.0
07/08:00pm 21.9 19.1 12.7 56 5.3 S 19 24 10 13 1019.0 1018.3 0.0
07/07:30pm 22.7 19.5 13.2 55 5.5 S 22 28 12 15 1018.5 1017.8 0.0
07/07:00pm 23.5 19.3 13.4 53 5.9 S 28 35 15 19 1018.1 1017.4 0.0
07/06:30pm 24.8 20.6 13.4 49 6.7 S 28 33 15 18 1017.8 1017.1 0.0
07/06:00pm 26.2 21.7 13.7 46 7.4 S 30 39 16 21 1017.5 1016.8 0.0
07/05:30pm 27.8 23.0 14.1 43 8.3 S 32 39 17 21 1017.3 1016.6 0.0
07/05:00pm 28.7 24.7 13.0 38 9.3 S 26 35 14 19 1017.1 1016.4 0.0
07/04:30pm 29.5 26.8 14.5 40 9.2 S 22 30 12 16 1017.1 1016.4 0.0
07/04:00pm 29.4 26.0 13.6 38 9.5 S 24 33 13 18 1017.1 1016.4 0.0
07/03:30pm 30.4 27.5 12.8 34 10.5 SSW 20 32 11 17 1017.2 1016.5 0.0
07/03:00pm 29.9 27.9 12.8 35 10.2 S 15 28 8 15 1017.3 1016.6 0.0
07/02:30pm 29.7 26.9 12.6 35 10.2 SW 19 28 10 15 1017.4 1016.7 0.0
07/02:00pm 29.8 29.1 13.1 36 10.0 WSW 9 20 5 11 1017.5 1016.8 0.0
07/01:30pm 29.2 28.6 13.4 38 9.5 S 9 17 5 9 1017.8 1017.1 0.0
07/01:00pm 27.8 26.3 11.8 37 9.3 SW 11 17 6 9 1017.9 1017.2 0.0
07/12:30pm 27.2 26.0 12.8 41 8.5 WSW 11 17 6 9 1018.2 1017.5 0.0
07/12:00pm 25.8 25.1 13.3 46 7.4 S 9 17 5 9 1018.4 1017.7 0.0
07/11:30am 24.6 23.1 13.2 49 6.7 S 13 19 7 10 1018.4 1017.7 0.0
07/11:00am 23.0 21.8 14.0 57 5.3 SSE 13 19 7 10 1018.5 1017.8 0.0
07/10:30am 21.7 20.2 14.1 62 4.5 ESE 15 20 8 11 1018.3 1017.6 0.0
07/10:00am 19.5 18.5 14.7 74 2.8 SSE 13 17 7 9 1018.7 1018.0 0.0
07/09:54am 19.4 18.3 14.4 73 2.9 SE 13 17 7 9 1018.7 1018.0 0.0
07/09:30am 18.0 17.0 14.5 80 2.0 SE 13 19 7 10 1018.4 1017.7 0.0
07/09:00am 16.8 16.0 15.0 89 1.1 SSE 13 17 7 9 1018.3 1017.6 0.0
07/08:30am 16.0 13.8 14.5 91 0.9 SSE 19 20 10 11 1018.4 1017.7 0.0
07/08:00am 15.5 13.3 14.4 93 0.6 SSE 19 22 10 12 1017.7 1017.0 0.0
07/07:37am 14.9 12.5 13.8 93 0.6 SSE 19 24 10 13 1017.4 1016.7 0.0
07/07:34am 14.8 12.3 13.5 92 0.7 S 19 24 10 13 1017.4 1016.7 0.0
07/07:30am 14.6 12.3 13.1 91 0.8 S 17 22 9 12 1017.4 1016.7 0.0
07/07:00am 14.8 11.7 11.6 81 1.7 SSE 19 20 10 11 1016.9 1016.2 0.0
07/06:30am 15.3 12.8 11.1 76 2.3 S 15 20 8 11 1016.4 1015.7 0.0
07/06:00am 16.5 14.2 10.4 67 3.3 ESE 13 15 7 8 1015.7 1014.9 0.0
07/05:30am 15.8 14.2 11.4 75 2.4 ESE 11 13 6 7 1015.6 1014.8 0.0
07/05:00am 14.9 13.0 11.7 81 1.7 ESE 13 15 7 8 1015.3 1014.5 0.0
07/04:30am 14.7 12.3 11.5 81 1.7 ESE 15 15 8 8 1015.3 1014.5 0.0
07/04:00am 15.2 12.9 11.6 79 2.0 ESE 15 17 8 9 1015.4 1014.6 0.0
07/03:30am 15.3 13.3 11.5 78 2.1 ESE 13 15 7 8 1015.6 1014.8 0.0
07/03:00am 15.4 13.5 11.8 79 2.0 ESE 13 15 7 8 1015.9 1015.2 0.0
07/02:30am 15.5 13.2 11.7 78 2.1 ESE 15 15 8 8 1016.0 1015.3 0.0
07/02:00am 15.4 13.5 11.8 79 2.0 ESE 13 15 7 8 1016.2 1015.5 0.0
07/01:30am 15.6 13.3 11.8 78 2.1 SE 15 15 8 8 1016.5 1015.8 0.0
07/01:00am 15.4 13.1 11.8 79 2.0 SE 15 15 8 8 1016.6 1015.9 0.0
07/12:30am 15.3 13.4 11.9 80 1.9 SE 13 13 7 7 1016.8 1016.1 0.0
07/12:00am 15.6 14.0 11.4 76 2.3 SE 11 13 6 7 1017.0 1016.3 0.0
 
Date/Time
EDT
Temp
°C
App
Temp
°C
Dew
Point
Rel
Hum
%
Delta-T
°C
Wind Press
QNH
hPa
Press
MSL
hPa
Rain
since 9 am
mm
Dir
 
Spd
km/h
Gust
km/h
Spd
kts
Gust
kts
06/11:30pm 16.8 14.9 11.7 72 2.8 ESE 13 15 7 8 1017.0 1016.3 0.0
06/11:00pm 17.2 15.9 11.2 68 3.3 SE 9 13 5 7 1016.9 1016.2 0.0
06/10:30pm 18.7 17.4 11.3 62 4.1 SSE 9 11 5 6 1016.8 1016.1 0.0
06/10:00pm 19.2 17.4 11.0 59 4.5 SE 11 13 6 7 1016.5 1015.8 0.0
06/09:30pm 20.5 18.0 11.2 55 5.2 SSE 15 19 8 10 1016.3 1015.6 0.0
06/09:00pm 21.4 18.5 10.9 51 5.8 SE 17 20 9 11 1015.8 1015.1 0.0
06/08:30pm 23.1 20.3 11.2 47 6.7 SE 17 24 9 13 1015.6 1014.8 0.0
06/08:00pm 25.0 21.6 11.2 42 7.8 SSE 20 28 11 15 1015.3 1014.5 0.0
06/07:30pm 26.2 21.4 10.4 37 8.9 SSE 26 32 14 17 1014.7 1014.0 0.0
06/07:00pm 28.2 23.3 9.9 32 10.3 SSE 26 33 14 18 1014.3 1013.6 0.0
06/06:30pm 28.9 23.5 9.6 30 10.9 S 28 35 15 19 1014.1 1013.4 0.0
06/06:00pm 30.0 25.3 10.5 30 11.2 SSE 26 35 14 19 1013.9 1013.2 0.0
06/05:30pm 30.3 25.0 11.3 31 11.1 SSE 30 41 16 22 1013.8 1013.1 0.0
06/05:26pm 30.5 25.7 11.5 31 11.1 SE 28 41 15 22 1013.9 1013.2 0.0
06/05:00pm 33.2 31.2 7.2 20 14.4 NNE 7 13 4 7 1013.6 1012.9 0.0
06/04:30pm 32.5 30.9 8.7 23 13.5 NNW 7 15 4 8 1013.9 1013.2 0.0
06/04:00pm 32.3 29.7 9.2 24 13.2 W 13 24 7 13 1014.2 1013.5 0.0
06/03:30pm 32.1 29.4 9.0 24 13.1 NW 13 19 7 10 1014.5 1013.8 0.0
06/03:00pm 31.5 28.8 9.1 25 12.7 W 13 20 7 11 1014.9 1014.2 0.0
06/02:30pm 30.5 27.8 8.8 26 12.2 NW 13 24 7 13 1015.3 1014.5 0.0
06/02:00pm 30.6 28.7 10.5 29 11.6 W 11 20 6 11 1015.7 1014.9 0.0
06/01:30pm 29.9 27.6 10.5 30 11.2 W 13 20 7 11 1016.1 1015.4 0.0
06/01:00pm 29.4 26.2 10.0 30 11.0 NW 17 33 9 18 1016.3 1015.6 0.0
06/12:30pm 28.6 25.1 10.3 32 10.4 NNW 19 28 10 15 1016.7 1016.0 0.0
06/12:00pm 28.7 24.5 9.9 31 10.6 NNW 22 32 12 17 1016.9 1016.2 0.0
06/11:30am 27.6 23.3 10.8 35 9.6 NNW 24 33 13 18 1017.0 1016.3 0.0
06/11:00am 27.1 23.0 11.6 38 9.0 NNW 24 33 13 18 1017.1 1016.4 0.0
06/10:30am 25.9 20.7 10.1 37 8.9 N 28 35 15 19 1017.1 1016.4 0.0
06/10:00am 24.5 20.8 11.5 44 7.4 N 22 28 12 15 1017.1 1016.4 0.0
06/09:30am 22.9 20.6 11.9 50 6.3 N 15 19 8 10 1017.3 1016.6 0.0
06/09:00am 20.5 19.4 12.0 58 4.8 N 9 13 5 7 1017.2 1016.5 0.0
06/08:30am 18.4 17.1 12.4 68 3.4 NE 11 13 6 7 1017.0 1016.3 0.0
06/08:00am 16.1 15.0 13.2 83 1.6 E 11 15 6 8 1016.7 1016.0 0.0
06/07:30am 14.1 12.1 12.7 91 0.8 ESE 15 17 8 9 1016.5 1015.8 0.0
06/07:00am 13.5 11.3 12.1 91 0.8 ESE 15 17 8 9 1016.2 1015.5 0.0
06/06:30am 13.5 10.5 12.1 91 0.8 ESE 19 20 10 11 1015.8 1015.1 0.0
06/06:00am 13.6 11.1 12.2 91 0.8 ESE 17 20 9 11 1015.7 1014.9 0.0

Other Formats:

Comma delimited format used in spreadsheet applications
http://www.bom.gov.au/fwo/IDV60801/IDV60801.94829.axf

JavaScript Object Notation format (JSON) in row-major order
http://www.bom.gov.au/fwo/IDV60801/IDV60801.94829.json